Time;durP1;ratioP1;P1;durP2;ratioP2;P2;SDS_P1;SDS_P2;PMS_P1;PMS_P2;Temp;Humidity;BMP_temperature;BMP_pressure;BME280_temperature;BME280_humidity;BME280_pressure;Samples;Min_cycle;Max_cycle;Signal;HPM_P1;HPM_P2
2020/12/18 00:01:18;;;;;;;18.10;12.37;;;4.00;99.90;;;4.76;100.00;101096.31;4734642;30;20248;-73
2020/12/18 00:03:46;;;;;;;19.37;12.50;;;4.00;99.90;;;4.70;100.00;101098.78;4734506;30;20641;-74
2020/12/18 00:06:14;;;;;;;16.57;11.77;;;4.00;99.90;;;4.82;100.00;101101.00;4734734;30;20311;-74
2020/12/18 00:08:41;;;;;;;18.33;12.50;;;3.90;99.90;;;5.26;100.00;101098.19;4735156;30;20277;-73
2020/12/18 00:11:10;;;;;;;18.80;13.13;;;4.00;99.90;;;5.18;100.00;101093.66;4734841;30;20670;-73
2020/12/18 00:13:37;;;;;;;18.03;13.40;;;4.10;99.90;;;5.42;100.00;101090.22;4734593;30;20725;-74
2020/12/18 00:16:04;;;;;;;19.13;13.30;;;4.20;99.90;;;5.37;100.00;101095.19;4734687;30;20270;-72
2020/12/18 00:18:32;;;;;;;17.97;13.30;;;4.30;99.90;;;5.31;100.00;101098.53;4743102;30;20708;-74
2020/12/18 00:20:59;;;;;;;17.23;12.83;;;4.40;99.90;;;4.93;100.00;101103.41;4751954;30;20309;-73
2020/12/18 00:23:26;;;;;;;16.80;12.40;;;4.20;99.90;;;4.90;100.00;101109.03;4752027;30;20316;-76
2020/12/18 00:25:53;;;;;;;18.33;14.03;;;4.10;99.90;;;4.68;100.00;101104.28;4752640;30;20305;-74
2020/12/18 00:28:21;;;;;;;21.07;14.43;;;4.00;99.90;;;4.68;100.00;101106.97;4752929;30;20667;-73
2020/12/18 00:30:49;;;;;;;20.53;15.20;;;3.90;99.90;;;4.61;100.00;101105.91;4752829;30;20717;-74
2020/12/18 00:33:16;;;;;;;20.57;14.73;;;3.80;99.90;;;4.69;100.00;101113.09;4752661;30;20659;-74
2020/12/18 00:35:44;;;;;;;19.00;14.27;;;3.80;99.90;;;4.66;100.00;101116.94;4752923;30;20238;-73
2020/12/18 00:38:11;;;;;;;18.87;14.97;;;3.80;99.90;;;4.74;100.00;101111.66;4753037;30;20326;-73
2020/12/18 00:40:38;;;;;;;17.43;13.30;;;3.80;99.90;;;5.08;100.00;101106.28;4752407;30;20305;-74
2020/12/18 00:43:05;;;;;;;19.20;14.27;;;3.90;99.90;;;4.92;100.00;101106.25;4752543;30;20295;-73
2020/12/18 00:45:33;;;;;;;19.83;13.63;;;3.90;99.90;;;5.04;100.00;101104.13;4752404;30;20213;-74
2020/12/18 00:48:01;;;;;;;20.63;13.17;;;4.00;99.90;;;5.18;100.00;101104.31;4752249;30;20327;-73
2020/12/18 00:50:28;;;;;;;17.03;12.97;;;4.00;99.90;;;4.79;100.00;101111.16;4752801;30;20304;-73
2020/12/18 00:52:55;;;;;;;18.90;12.30;;;3.90;99.90;;;4.82;100.00;101109.00;4752060;30;20715;-73
2020/12/18 00:55:22;;;;;;;16.40;12.47;;;3.90;99.90;;;5.26;100.00;101115.03;4752113;30;20560;-74
2020/12/18 00:57:49;;;;;;;15.03;11.93;;;4.00;99.90;;;5.36;100.00;101109.56;4751655;30;20302;-73
2020/12/18 01:00:17;;;;;;;19.27;12.77;;;4.10;99.90;;;5.38;100.00;101110.25;4751772;30;20297;-74
2020/12/18 01:02:46;;;;;;;15.80;12.63;;;4.20;99.90;;;5.13;100.00;101100.47;4751328;30;20249;-73
2020/12/18 01:05:13;;;;;;;16.37;12.60;;;4.20;99.90;;;5.32;100.00;101106.38;4751639;30;20310;-72
2020/12/18 01:07:40;;;;;;;17.83;12.17;;;4.20;99.90;;;5.07;100.00;101107.31;4751615;30;20209;-74
2020/12/18 01:10:08;;;;;;;15.97;12.23;;;4.20;99.90;;;5.03;100.00;101108.59;4751563;30;20214;-75
2020/12/18 01:12:35;;;;;;;18.27;13.13;;;4.10;99.90;;;4.97;100.00;101111.94;4751108;30;20219;-74
2020/12/18 01:15:03;;;;;;;17.53;12.27;;;4.10;99.90;;;5.08;100.00;101110.78;4751503;30;20245;-74
2020/12/18 01:17:30;;;;;;;17.27;11.90;;;4.10;99.90;;;4.86;100.00;101110.38;4750749;30;20801;-74
2020/12/18 01:19:58;;;;;;;17.03;11.83;;;4.00;99.90;;;4.99;100.00;101112.59;4750844;30;20219;-74
2020/12/18 01:22:25;;;;;;;20.63;12.97;;;4.00;99.90;;;5.03;100.00;101107.75;4751437;30;20303;-73
2020/12/18 01:24:52;;;;;;;18.53;12.93;;;4.00;99.90;;;5.28;100.00;101110.38;4751429;30;20235;-75
2020/12/18 01:27:20;;;;;;;18.00;12.53;;;4.10;99.90;;;5.28;100.00;101117.53;4751115;30;20564;-73
2020/12/18 01:29:47;;;;;;;16.70;12.47;;;4.20;99.90;;;5.28;100.00;101104.19;4750988;30;20215;-74
2020/12/18 01:32:15;;;;;;;16.57;11.97;;;4.20;99.90;;;4.88;100.00;101123.56;4750556;30;20209;-74
2020/12/18 01:34:44;;;;;;;16.90;12.00;;;4.10;99.90;;;4.67;100.00;101115.94;4751151;30;20212;-74
2020/12/18 01:37:12;;;;;;;16.47;12.57;;;4.00;99.90;;;4.93;100.00;101116.75;4750877;30;20236;-75
2020/12/18 01:39:39;;;;;;;14.77;11.87;;;3.90;99.90;;;4.64;100.00;101121.59;4751265;30;20313;-73
2020/12/18 01:42:07;;;;;;;17.23;12.50;;;3.90;99.90;;;4.40;100.00;101117.91;4751185;30;20213;-74
2020/12/18 01:44:35;;;;;;;19.13;13.07;;;3.70;99.90;;;4.16;100.00;101121.25;4751227;30;20212;-74
2020/12/18 01:47:03;;;;;;;18.67;13.10;;;3.60;99.90;;;4.35;100.00;101118.41;4751106;30;20296;-73
2020/12/18 01:49:30;;;;;;;19.90;14.40;;;3.50;99.90;;;4.28;100.00;101120.00;4750318;30;20246;-75
2020/12/18 01:51:58;;;;;;;18.60;13.23;;;3.50;99.90;;;4.65;100.00;101109.91;4751047;30;20293;-73
2020/12/18 01:54:26;;;;;;;17.73;13.40;;;3.60;99.90;;;4.38;100.00;101107.41;4750815;30;20901;-73
2020/12/18 01:56:54;;;;;;;19.13;13.83;;;3.60;99.90;;;4.77;100.00;101106.00;4750902;30;20270;-74
2020/12/18 01:59:22;;;;;;;18.40;13.23;;;3.60;99.90;;;4.54;100.00;101104.88;4751048;30;20274;-74
2020/12/18 02:01:50;;;;;;;20.63;14.13;;;3.60;99.90;;;4.86;100.00;101105.03;4750687;30;20668;-73
2020/12/18 02:04:18;;;;;;;18.57;12.97;;;3.70;99.90;;;4.51;100.00;101110.53;4750507;30;20301;-74
2020/12/18 02:06:53;;;;;;;18.10;13.00;;;3.70;99.90;;;4.52;100.00;101120.19;4750993;30;20286;-73
2020/12/18 02:09:21;;;;;;;17.97;13.67;;;3.60;99.90;;;4.56;100.00;101108.22;4756616;30;20297;-73
2020/12/18 02:11:53;;;;;;;17.77;13.13;;;3.60;99.90;;;4.32;100.00;101110.72;4759878;30;20216;-74
2020/12/18 02:14:21;;;;;;;17.77;12.70;;;3.60;99.90;;;4.26;100.00;101116.66;4758928;30;20264;-74
2020/12/18 02:16:49;;;;;;;16.90;12.87;;;3.50;99.90;;;4.41;100.00;101111.63;4752886;30;20239;-75
2020/12/18 02:19:19;;;;;;;15.97;12.17;;;3.50;99.90;;;4.67;100.00;101110.59;4750673;30;20303;-73
2020/12/18 02:22:13;;;;;;;16.83;12.47;;;3.60;99.90;;;4.34;100.00;101118.56;4750658;30;20202;-74
2020/12/18 02:24:51;;;;;;;18.73;13.50;;;3.50;99.90;;;4.24;100.00;101117.81;4750852;30;20203;-73
2020/12/18 02:27:20;;;;;;;14.87;12.23;;;3.40;99.90;;;4.43;100.00;101125.63;4750689;30;20194;-74
2020/12/18 02:29:47;;;;;;;17.67;13.13;;;3.50;99.90;;;4.37;100.00;101119.09;4750847;30;20743;-74
2020/12/18 02:32:14;;;;;;;17.27;13.30;;;3.40;99.90;;;4.11;100.00;101123.53;4750575;30;20295;-73
2020/12/18 02:34:41;;;;;;;18.73;13.67;;;3.40;99.90;;;4.16;100.00;101121.25;4750369;30;20714;-72
2020/12/18 02:37:08;;;;;;;21.20;14.30;;;3.30;99.90;;;4.37;100.00;101112.91;4750259;30;20748;-74
2020/12/18 02:39:36;;;;;;;20.37;14.40;;;3.30;99.90;;;4.49;100.00;101115.16;4750763;30;20244;-74
2020/12/18 02:42:04;;;;;;;18.60;13.37;;;3.40;99.90;;;4.26;100.00;101121.19;4750373;30;20260;-73
2020/12/18 02:44:32;;;;;;;20.87;13.43;;;3.30;99.90;;;4.18;100.00;101126.44;4753761;30;20274;-74
2020/12/18 02:46:59;;;;;;;16.67;12.97;;;3.30;99.90;;;4.13;100.00;101116.22;4753516;30;20277;-74
2020/12/18 02:49:27;;;;;;;19.57;13.73;;;3.20;99.90;;;4.07;100.00;101114.19;4753347;30;20325;-73
2020/12/18 02:51:55;;;;;;;19.57;13.60;;;3.20;99.90;;;4.10;100.00;101110.38;4753498;30;20631;-73
2020/12/18 02:54:23;;;;;;;18.83;14.23;;;3.20;99.90;;;4.04;100.00;101109.19;4753490;30;20762;-72
2020/12/18 02:56:50;;;;;;;18.37;14.00;;;3.20;99.90;;;3.99;100.00;101107.97;4753237;30;20269;-74
2020/12/18 02:59:17;;;;;;;20.53;14.23;;;3.20;99.90;;;4.16;100.00;101123.91;4753542;30;20726;-74
2020/12/18 03:01:45;;;;;;;18.63;14.13;;;3.10;99.90;;;4.30;100.00;101115.38;4753362;30;20222;-73
2020/12/18 03:04:12;;;;;;;19.43;13.03;;;3.20;99.90;;;4.15;100.00;101116.06;4753544;30;20640;-73
2020/12/18 03:06:40;;;;;;;20.20;14.37;;;3.20;99.90;;;3.98;100.00;101123.09;4753541;30;20244;-74
2020/12/18 03:09:07;;;;;;;22.97;18.00;;;3.10;99.90;;;3.84;100.00;101120.97;4754859;30;20242;-73
2020/12/18 03:11:34;;;;;;;26.00;22.83;;;3.10;99.90;;;3.90;100.00;101115.06;4754331;30;20300;-73
2020/12/18 03:14:01;;;;;;;22.23;18.30;;;3.00;99.90;;;4.08;100.00;101118.53;4754878;30;20376;-75
2020/12/18 03:16:29;;;;;;;24.97;16.10;;;3.10;99.90;;;4.13;100.00;101118.06;4753750;30;20736;-73
2020/12/18 03:18:57;;;;;;;20.40;14.50;;;3.10;99.90;;;4.45;100.00;101124.47;4754004;30;20581;-73
2020/12/18 03:21:24;;;;;;;20.17;14.30;;;3.30;99.90;;;4.64;100.00;101126.94;4753782;30;20243;-73
2020/12/18 03:23:51;;;;;;;17.67;13.00;;;3.40;99.90;;;4.70;100.00;101122.81;4753123;30;20303;-73
2020/12/18 03:26:18;;;;;;;16.80;12.70;;;3.50;99.90;;;4.67;100.00;101120.44;4753287;30;20292;-74
2020/12/18 03:28:45;;;;;;;18.50;13.00;;;3.50;99.90;;;4.67;100.00;101120.44;4753335;30;20215;-73
2020/12/18 03:31:13;;;;;;;17.73;13.10;;;3.60;99.90;;;4.68;100.00;101128.31;4752791;30;20297;-73
2020/12/18 03:33:40;;;;;;;16.73;11.97;;;3.60;99.90;;;4.68;100.00;101119.44;4752854;30;20707;-73
2020/12/18 03:36:08;;;;;;;17.33;11.90;;;3.60;99.90;;;4.33;100.00;101125.72;4753209;30;20220;-73
2020/12/18 03:38:35;;;;;;;20.53;13.10;;;3.50;99.90;;;4.22;100.00;101120.66;4753200;30;20221;-73
2020/12/18 03:41:06;;;;;;;17.17;12.60;;;3.40;99.90;;;4.07;100.00;101130.19;4753096;30;20301;-73
2020/12/18 03:43:34;;;;;;;18.53;12.83;;;3.30;99.90;;;3.96;100.00;101126.94;4753227;30;20198;-73
2020/12/18 03:46:02;;;;;;;16.80;12.80;;;3.20;99.90;;;3.83;100.00;101129.97;4752411;30;20215;-74
2020/12/18 03:48:29;;;;;;;17.60;12.77;;;3.10;99.90;;;3.94;100.00;101123.56;4752521;30;20273;-73
2020/12/18 03:50:56;;;;;;;17.77;12.83;;;3.10;99.90;;;3.79;100.00;101123.25;4752901;30;20282;-74
2020/12/18 03:53:24;;;;;;;19.40;13.57;;;3.00;99.90;;;3.81;100.00;101128.44;4752905;30;20217;-74
2020/12/18 03:55:51;;;;;;;18.40;14.00;;;3.00;99.90;;;3.80;100.00;101132.09;4751951;30;20297;-74
2020/12/18 03:58:18;;;;;;;19.47;14.87;;;2.90;99.90;;;3.62;100.00;101132.06;4752560;30;20705;-74
2020/12/18 04:00:46;;;;;;;20.27;15.87;;;2.90;99.90;;;3.75;100.00;101133.38;4752540;30;20216;-73
2020/12/18 04:03:13;;;;;;;22.33;15.77;;;2.90;99.90;;;3.70;100.00;101134.84;4752662;30;20333;-73
2020/12/18 04:05:41;;;;;;;20.80;14.60;;;2.90;99.90;;;3.81;100.00;101134.59;4752326;30;20263;-73
2020/12/18 04:08:08;;;;;;;19.80;13.73;;;2.90;99.90;;;3.77;100.00;101141.25;4752786;30;20301;-74
2020/12/18 04:10:36;;;;;;;19.73;14.73;;;2.90;99.90;;;4.16;100.00;101134.56;4752406;30;20210;-73
2020/12/18 04:13:03;;;;;;;21.10;14.50;;;3.00;99.90;;;3.76;100.00;101136.88;4752458;30;20208;-74
2020/12/18 04:15:30;;;;;;;21.30;14.47;;;3.00;99.90;;;3.86;100.00;101139.50;4752398;30;20283;-74
2020/12/18 04:17:57;;;;;;;18.50;13.60;;;2.90;99.90;;;3.68;100.00;101142.16;4752157;30;20659;-75
2020/12/18 04:20:24;;;;;;;21.67;15.00;;;3.00;99.90;;;3.82;100.00;101151.44;4752354;30;20292;-74
2020/12/18 04:22:52;;;;;;;18.37;13.97;;;2.90;99.90;;;3.82;100.00;101151.44;4752467;30;20217;-74
2020/12/18 04:25:19;;;;;;;20.47;14.33;;;2.90;99.90;;;3.83;100.00;101150.44;4752370;30;20213;-74
2020/12/18 04:27:47;;;;;;;18.87;14.13;;;2.90;99.90;;;4.01;100.00;101149.44;4751862;30;20260;-74
2020/12/18 04:30:14;;;;;;;20.43;14.93;;;2.90;99.90;;;3.80;100.00;101162.25;4752075;30;20255;-73
2020/12/18 04:32:41;;;;;;;21.53;16.33;;;3.00;99.90;;;4.31;100.00;101151.69;4751665;30;20316;-73
2020/12/18 04:35:09;;;;;;;21.00;15.57;;;3.10;99.90;;;4.15;100.00;101158.72;4751834;30;20297;-74
2020/12/18 04:37:36;;;;;;;21.80;14.67;;;3.10;99.90;;;4.52;100.00;101160.19;4751965;30;20329;-74
2020/12/18 04:40:04;;;;;;;18.03;14.00;;;3.20;99.90;;;4.56;100.00;101160.72;4752182;30;20845;-74
2020/12/18 04:42:34;;;;;;;19.47;14.30;;;3.40;99.90;;;4.70;100.00;101152.97;4748938;30;20216;-74
2020/12/18 04:45:04;;;;;;;17.50;13.60;;;3.50;99.90;;;4.68;100.00;101152.31;4733980;30;20310;-73
2020/12/18 04:47:37;;;;;;;19.43;13.87;;;3.60;99.90;;;4.69;100.00;101153.97;4734232;30;20288;-73
2020/12/18 04:50:04;;;;;;;19.00;14.00;;;3.60;99.90;;;4.62;100.00;101154.75;4733910;30;20233;-74
2020/12/18 04:52:32;;;;;;;20.27;13.27;;;3.60;99.90;;;4.57;100.00;101151.72;4734237;30;20248;-74
2020/12/18 04:55:01;;;;;;;18.70;13.87;;;3.60;99.90;;;4.28;100.00;101154.69;4734296;30;20544;-75
2020/12/18 04:57:30;;;;;;;19.10;13.70;;;3.50;99.90;;;4.11;100.00;101155.53;4733926;30;20360;-73
2020/12/18 05:00:02;;;;;;;18.57;13.53;;;3.40;99.90;;;4.26;100.00;101154.00;4733810;30;20315;-74
2020/12/18 05:02:30;;;;;;;19.57;14.30;;;3.40;99.90;;;4.45;100.00;101151.16;4734085;30;20222;-74
2020/12/18 05:04:57;;;;;;;19.90;14.37;;;3.40;99.90;;;4.33;100.00;101159.56;4734038;30;20220;-74
2020/12/18 05:07:24;;;;;;;19.20;14.13;;;3.40;99.90;;;4.05;100.00;101158.81;4733713;30;20742;-73
2020/12/18 05:09:52;;;;;;;20.70;14.30;;;3.40;99.90;;;4.32;100.00;101158.72;4734040;30;20229;-73
2020/12/18 05:12:20;;;;;;;21.57;14.10;;;3.40;99.90;;;4.60;100.00;101156.78;4733490;30;20536;-60
2020/12/18 05:14:47;;;;;;;18.57;13.80;;;3.40;99.90;;;4.20;100.00;101164.44;4733661;30;20317;-60
2020/12/18 05:17:15;;;;;;;20.90;15.83;;;3.40;99.90;;;4.57;100.00;101157.91;4733712;30;20235;-60
2020/12/18 05:19:44;;;;;;;20.07;14.90;;;3.50;99.90;;;4.66;100.00;101161.47;4750794;30;20294;-61
2020/12/18 05:22:13;;;;;;;20.57;14.83;;;3.60;99.90;;;4.66;100.00;101156.13;4751509;30;20622;-60
2020/12/18 05:24:41;;;;;;;20.23;13.83;;;3.60;99.90;;;4.60;100.00;101154.09;4751176;30;20250;-60
2020/12/18 05:27:09;;;;;;;20.20;14.83;;;3.60;99.90;;;4.71;100.00;101152.00;4750761;30;20244;-60
2020/12/18 05:29:38;;;;;;;20.73;14.83;;;3.70;99.90;;;4.72;100.00;101159.00;4751332;30;20210;-60
2020/12/18 05:32:05;;;;;;;22.73;14.80;;;3.70;99.90;;;4.77;100.00;101156.69;4751266;30;20240;-60
2020/12/18 05:34:33;;;;;;;21.90;13.90;;;3.70;99.90;;;4.76;100.00;101165.72;4751102;30;20218;-60
2020/12/18 05:37:01;;;;;;;18.83;13.80;;;3.80;99.90;;;4.31;100.00;101167.69;4751292;30;20264;-60
2020/12/18 05:39:28;;;;;;;21.23;14.47;;;3.70;99.90;;;4.55;100.00;101167.88;4751051;30;20767;-61
2020/12/18 05:41:59;;;;;;;19.37;14.10;;;3.70;99.90;;;4.22;100.00;101165.13;4750635;30;20311;-60
2020/12/18 05:44:28;;;;;;;20.07;14.77;;;3.60;99.90;;;4.50;100.00;101167.50;4750920;30;20833;-61
2020/12/18 05:47:03;;;;;;;22.03;14.67;;;3.60;99.90;;;4.43;100.00;101165.66;4751249;30;20625;-60
2020/12/18 05:49:33;;;;;;;19.43;14.13;;;3.60;99.90;;;4.73;100.00;101167.84;4750725;30;20239;-60
2020/12/18 05:52:04;;;;;;;19.67;14.67;;;3.70;99.90;;;4.59;100.00;101166.59;4751021;30;20213;-60
2020/12/18 05:54:33;;;;;;;20.30;13.83;;;3.70;99.90;;;5.01;100.00;101155.97;4751151;30;20296;-59
2020/12/18 05:57:11;;;;;;;19.57;14.00;;;3.80;99.90;;;5.10;100.00;101167.53;4750535;30;20674;-61
2020/12/18 05:59:42;;;;;;;17.63;13.47;;;3.90;99.90;;;4.97;100.00;101168.81;4750767;30;20285;-60
2020/12/18 06:02:15;;;;;;;19.30;14.20;;;4.00;99.90;;;5.14;100.00;101176.94;4751292;30;20279;-60
2020/12/18 06:04:45;;;;;;;20.03;13.87;;;4.00;99.90;;;5.17;100.00;101171.25;4750762;30;20222;-60
2020/12/18 06:07:14;;;;;;;18.80;13.73;;;4.10;99.90;;;5.20;100.00;101170.94;4750962;30;20209;-60
2020/12/18 06:09:42;;;;;;;15.93;12.60;;;4.10;99.90;;;5.14;100.00;101172.44;4750957;30;20615;-60
2020/12/18 06:12:12;;;;;;;20.70;14.00;;;4.20;99.90;;;5.08;100.00;101166.88;4750378;30;20330;-59
2020/12/18 06:14:42;;;;;;;20.90;14.53;;;4.20;99.90;;;4.88;100.00;101171.59;4750869;30;20266;-60
2020/12/18 06:17:13;;;;;;;18.00;13.87;;;4.20;99.90;;;5.03;100.00;101174.50;4750575;30;20789;-60
2020/12/18 06:19:42;;;;;;;18.97;13.50;;;4.10;99.90;;;5.19;100.00;101172.78;4753991;30;20751;-60
2020/12/18 06:22:12;;;;;;;19.90;13.07;;;4.10;99.90;;;5.23;100.00;101167.94;4754306;30;20216;-59
2020/12/18 06:24:42;;;;;;;20.67;13.80;;;4.20;99.90;;;5.25;100.00;101173.94;4754397;30;20223;-61
2020/12/18 06:27:15;;;;;;;18.23;13.13;;;4.20;99.90;;;5.18;100.00;101167.56;4753907;30;20195;-60
2020/12/18 06:29:43;;;;;;;20.50;13.83;;;4.20;99.90;;;5.26;100.00;101171.13;4754271;30;20193;-60
2020/12/18 06:32:28;;;;;;;18.93;12.83;;;4.30;99.90;;;5.01;100.00;101177.34;4754208;30;20302;-59
2020/12/18 06:35:26;;;;;;;18.73;13.23;;;4.20;99.90;;;5.16;100.00;101173.06;4753944;30;20225;-60
2020/12/18 06:37:53;;;;;;;16.90;13.60;;;4.20;99.90;;;5.24;100.00;101181.16;4754000;30;20247;-59
2020/12/18 06:40:30;;;;;;;18.60;13.60;;;4.30;99.90;;;5.37;100.00;101189.53;4753740;30;20252;-60
2020/12/18 06:42:59;;;;;;;18.83;13.37;;;4.30;99.90;;;5.45;100.00;101191.41;4753474;30;20192;-59
2020/12/18 06:45:27;;;;;;;19.67;13.93;;;4.40;99.90;;;5.39;100.00;101184.03;4753933;30;20218;-60
2020/12/18 06:47:55;;;;;;;18.80;12.87;;;4.50;99.90;;;5.15;100.00;101186.59;4753600;30;20327;-60
2020/12/18 06:50:23;;;;;;;17.80;12.83;;;4.40;99.90;;;5.45;100.00;101189.56;4753725;30;20256;-61
2020/12/18 06:52:56;;;;;;;19.33;13.00;;;4.50;99.90;;;5.42;100.00;101195.25;4753390;30;20256;-59
2020/12/18 06:55:41;;;;;;;17.67;13.77;;;4.50;99.90;;;5.47;100.00;101186.75;4723910;30;20851;-60
2020/12/18 06:58:14;;;;;;;18.53;13.37;;;4.50;99.90;;;5.36;100.00;101182.50;4718024;30;20228;-60
2020/12/18 07:01:00;;;;;;;19.30;12.53;;;4.50;99.90;;;5.30;100.00;101185.00;4718344;30;20252;-61
2020/12/18 07:03:39;;;;;;;18.67;13.33;;;4.40;99.90;;;5.37;100.00;101196.72;4718289;30;20650;-60
2020/12/18 07:06:10;;;;;;;18.70;14.00;;;4.50;99.90;;;5.30;100.00;101185.84;4726747;30;20261;-61
2020/12/18 07:08:39;;;;;;;19.93;13.47;;;4.50;99.90;;;5.08;100.00;101198.91;4738807;30;20257;-59
2020/12/18 07:11:12;;;;;;;19.27;13.23;;;4.30;99.90;;;5.43;100.00;101193.41;4739949;30;20875;-62
2020/12/18 07:13:42;;;;;;;17.13;13.07;;;4.40;99.90;;;5.21;100.00;101197.47;4739702;30;20290;-59
2020/12/18 07:16:11;;;;;;;18.97;13.77;;;4.40;99.90;;;5.18;100.00;101196.94;4736682;30;20686;-61
2020/12/18 07:18:41;;;;;;;17.33;13.27;;;4.40;99.90;;;5.56;100.00;101194.63;4745714;30;20693;-60
2020/12/18 07:21:11;;;;;;;21.17;13.97;;;4.50;99.90;;;5.56;100.00;101193.78;4753708;30;20219;-60
2020/12/18 07:23:41;;;;;;;19.07;13.20;;;4.60;99.90;;;5.56;100.00;101204.47;4753570;30;20298;-60
2020/12/18 07:26:11;;;;;;;18.43;12.53;;;4.60;99.90;;;5.64;100.00;101188.47;4752725;30;20308;-60
2020/12/18 07:28:41;;;;;;;18.23;12.83;;;4.70;99.90;;;5.55;100.00;101192.09;4752464;30;20565;-60
2020/12/18 07:31:17;;;;;;;16.47;12.27;;;4.70;99.90;;;5.51;100.00;101193.44;4753252;30;20222;-60
2020/12/18 07:33:45;;;;;;;18.73;12.60;;;4.60;99.90;;;5.51;100.00;101196.97;4753917;30;20556;-61
2020/12/18 07:36:13;;;;;;;17.23;12.50;;;4.60;99.90;;;5.67;100.00;101199.66;4747344;30;20273;-60
2020/12/18 07:38:41;;;;;;;17.90;12.40;;;4.70;99.90;;;5.46;100.00;101201.94;4735468;30;20246;-60
2020/12/18 07:41:14;;;;;;;17.90;13.17;;;4.70;99.90;;;5.93;100.00;101188.91;4734617;30;20271;-61
2020/12/18 07:43:45;;;;;;;18.37;13.17;;;4.80;99.90;;;5.98;100.00;101189.25;4735386;30;20246;-60
2020/12/18 07:46:16;;;;;;;16.17;12.67;;;4.90;99.90;;;6.10;100.00;101190.63;4735577;30;20208;-61
2020/12/18 07:48:46;;;;;;;17.87;12.60;;;5.00;99.90;;;6.20;100.00;101183.25;4735048;30;20243;-60
2020/12/18 07:51:18;;;;;;;17.73;12.23;;;5.10;99.90;;;6.02;100.00;101188.75;4734965;30;20675;-60
2020/12/18 07:53:51;;;;;;;17.50;12.03;;;5.10;99.90;;;6.26;100.00;101181.78;4734863;30;20668;-59
2020/12/18 07:56:21;;;;;;;19.57;11.60;;;5.20;99.90;;;6.06;100.00;101187.44;4734649;30;20198;-60
2020/12/18 07:58:52;;;;;;;17.50;12.53;;;5.20;99.90;;;6.05;100.00;101184.94;4734624;30;20387;-60
2020/12/18 08:01:21;;;;;;;17.53;13.30;;;5.20;99.90;;;6.10;100.00;101179.91;4734699;30;20295;-61
2020/12/18 08:03:52;;;;;;;15.73;11.77;;;5.20;99.90;;;5.95;100.00;101173.53;4735305;30;20244;-59
2020/12/18 08:06:22;;;;;;;15.93;11.47;;;5.20;99.90;;;6.10;100.00;101182.59;4735214;30;20285;-60
2020/12/18 08:08:57;;;;;;;15.27;11.33;;;5.20;99.90;;;6.24;100.00;101173.88;4734382;30;20631;-59
2020/12/18 08:11:27;;;;;;;16.40;12.63;;;5.30;99.90;;;6.27;100.00;101176.25;4734351;30;20286;-61
2020/12/18 08:13:56;;;;;;;17.03;12.03;;;5.30;99.90;;;6.21;100.00;101181.44;4734632;30;20280;-60
2020/12/18 08:16:26;;;;;;;21.00;12.97;;;5.30;99.90;;;6.47;100.00;101180.25;4734906;30;20250;-77
2020/12/18 08:18:57;;;;;;;16.07;11.53;;;5.40;99.90;;;6.45;100.00;101178.75;4745584;30;20271;-78
2020/12/18 08:21:28;;;;;;;17.20;12.60;;;5.50;99.90;;;6.56;100.00;101173.88;4752269;30;20286;-77
2020/12/18 08:24:12;;;;;;;15.30;11.13;;;5.50;99.90;;;6.72;99.82;101171.19;4751803;30;20336;-79
2020/12/18 08:26:46;;;;;;;15.43;11.47;;;5.60;99.90;;;6.66;100.00;101171.03;4752917;30;20626;-77
2020/12/18 08:29:14;;;;;;;15.83;11.57;;;5.70;99.90;;;6.88;99.76;101173.81;4752298;30;20329;-78
2020/12/18 08:31:45;;;;;;;15.63;11.80;;;5.80;99.90;;;6.88;99.90;101173.81;4752984;30;20215;-77
2020/12/18 08:34:20;;;;;;;17.27;11.40;;;5.80;99.90;;;6.73;99.63;101172.03;4752804;30;20290;-77
2020/12/18 08:36:47;;;;;;;16.50;12.30;;;5.90;99.90;;;6.84;99.91;101164.47;4752310;30;20194;-77
2020/12/18 08:39:16;;;;;;;15.57;11.67;;;5.90;99.90;;;7.10;98.53;101161.56;4752316;30;20242;-76
2020/12/18 08:41:48;;;;;;;14.80;11.40;;;5.90;99.90;;;7.09;97.81;101154.53;4751557;30;20240;-78
2020/12/18 08:44:19;;;;;;;17.57;12.27;;;6.00;99.90;;;6.95;98.82;101169.47;4751966;30;20660;-77
2020/12/18 08:46:48;;;;;;;13.53;11.27;;;6.10;99.90;;;7.31;96.82;101176.06;4751700;30;20280;-77
2020/12/18 08:49:20;;;;;;;17.03;11.87;;;6.10;99.90;;;7.25;96.55;101170.56;4751669;30;20366;-77
2020/12/18 08:51:49;;;;;;;14.30;11.40;;;6.20;99.90;;;7.22;98.00;101169.03;4751963;30;20283;-78
2020/12/18 08:54:37;;;;;;;14.77;11.83;;;6.20;99.90;;;7.23;97.37;101153.81;4740297;30;20299;-77
2020/12/18 08:57:15;;;;;;;15.10;11.27;;;6.20;99.90;;;7.18;97.43;101170.41;4733979;30;20225;-77
2020/12/18 08:59:58;;;;;;;15.27;11.40;;;6.20;99.90;;;6.99;99.35;101173.47;4734161;30;20200;-78
2020/12/18 09:02:27;;;;;;;15.13;12.20;;;6.10;99.90;;;7.28;96.00;101176.41;4734354;30;20623;-78
2020/12/18 09:05:21;;;;;;;15.57;12.20;;;6.20;99.90;;;7.26;96.87;101175.75;4733881;30;20305;-79
2020/12/18 09:07:52;;;;;;;13.47;11.03;;;6.30;99.90;;;7.47;95.76;101180.50;4734089;30;20652;-78
2020/12/18 09:10:40;;;;;;;14.03;11.53;;;6.40;99.90;;;7.61;96.44;101189.66;4733672;30;20639;-75
2020/12/18 09:13:16;;;;;;;16.17;10.83;;;6.40;99.90;;;7.83;93.40;101181.66;4734428;30;20205;-77
2020/12/18 09:15:46;;;;;;;16.60;11.80;;;6.60;99.90;;;8.04;93.64;101187.22;4733705;30;20200;-79
2020/12/18 09:18:21;;;;;;;15.70;11.83;;;6.80;99.90;;;8.00;93.50;101183.22;4734173;30;20332;-77
2020/12/18 09:20:48;;;;;;;15.47;11.47;;;6.80;99.90;;;8.10;93.06;101181.13;4733396;30;20579;-78
2020/12/18 09:23:18;;;;;;;14.83;11.27;;;7.00;99.90;;;8.17;92.24;101189.31;4733981;30;20307;-75
2020/12/18 09:25:50;;;;;;;13.10;10.47;;;7.10;99.90;;;8.31;90.25;101177.84;4735290;30;20266;-74
2020/12/18 09:28:21;;;;;;;15.50;10.77;;;7.20;99.90;;;8.21;92.05;101179.88;4748282;30;20192;-75
2020/12/18 09:30:50;;;;;;;16.07;11.73;;;7.20;99.90;;;8.22;91.51;101179.72;4748369;30;20200;-73
2020/12/18 09:33:30;;;;;;;16.43;11.60;;;7.20;99.90;;;8.17;92.49;101179.41;4737188;30;20220;-73
2020/12/18 09:36:03;;;;;;;13.00;10.57;;;7.20;99.90;;;8.21;92.97;101163.78;4730293;30;20215;-73
2020/12/18 09:38:32;;;;;;;15.20;11.20;;;7.20;99.90;;;8.41;91.44;101163.16;4730398;30;20217;-73
2020/12/18 09:41:01;;;;;;;14.97;10.70;;;7.30;99.90;;;8.15;92.51;101172.56;4729701;30;20317;-73
2020/12/18 09:43:30;;;;;;;13.60;10.37;;;7.30;99.90;;;8.12;93.38;101159.47;4730067;30;20704;-73
2020/12/18 09:45:58;;;;;;;13.57;10.50;;;7.30;99.90;;;8.20;92.42;101160.25;4730036;30;20225;-72
2020/12/18 09:48:27;;;;;;;15.27;10.43;;;7.30;99.90;;;8.25;92.35;101154.41;4729844;30;20294;-74
2020/12/18 09:50:56;;;;;;;13.83;11.17;;;7.30;99.90;;;8.25;92.76;101165.97;4729871;30;20300;-74
2020/12/18 09:53:24;;;;;;;13.87;10.80;;;7.30;99.90;;;8.26;92.71;101164.13;4729635;30;20312;-75
2020/12/18 09:55:53;;;;;;;14.07;11.00;;;7.30;99.90;;;8.17;93.17;101157.94;4729795;30;20300;-73
2020/12/18 09:58:24;;;;;;;14.20;11.37;;;7.30;99.90;;;8.26;92.61;101162.28;4730092;30;20228;-76
2020/12/18 10:00:52;;;;;;;16.07;11.57;;;7.30;99.90;;;8.38;92.15;101158.16;4730145;30;20220;-76
2020/12/18 10:03:19;;;;;;;14.17;10.90;;;7.40;99.90;;;8.23;92.12;101159.97;4724151;30;20459;-75
2020/12/18 10:05:47;;;;;;;14.00;10.30;;;7.30;99.90;;;8.30;91.89;101157.38;4719861;30;20300;-75
2020/12/18 10:08:14;;;;;;;13.87;10.83;;;7.40;99.90;;;8.33;91.66;101157.03;4714460;30;20212;-75
2020/12/18 10:10:43;;;;;;;12.37;9.60;;;7.40;99.90;;;8.41;91.64;101155.09;4712263;30;20428;-73
2020/12/18 10:13:10;;;;;;;13.00;9.90;;;7.50;99.90;;;8.48;90.69;101148.00;4712745;30;20218;-78
2020/12/18 10:15:37;;;;;;;11.57;8.87;;;7.60;99.90;;;8.57;90.31;101146.06;4713324;30;20217;-78
2020/12/18 10:18:05;;;;;;;13.97;9.80;;;7.60;99.90;;;8.54;90.58;101147.25;4723832;30;20323;-77